sensor_id;sensor_type;location;lat;lon;timestamp;temperature;humidity
12845;DHT22;68700;48.534;9.196;2023-06-22T00:02:53;20.40;30.20
12845;DHT22;68700;48.534;9.196;2023-06-22T00:06:14;20.40;35.00
12845;DHT22;68700;48.534;9.196;2023-06-22T00:09:37;20.30;33.60
12845;DHT22;68700;48.534;9.196;2023-06-22T00:12:59;20.30;35.70
12845;DHT22;68700;48.534;9.196;2023-06-22T00:16:21;20.20;48.40
12845;DHT22;68700;48.534;9.196;2023-06-22T00:19:43;20.20;58.60
12845;DHT22;68700;48.534;9.196;2023-06-22T00:23:06;20.10;64.00
12845;DHT22;68700;48.534;9.196;2023-06-22T00:26:30;20.10;71.50
12845;DHT22;68700;48.534;9.196;2023-06-22T00:29:52;20.00;81.20
12845;DHT22;68700;48.534;9.196;2023-06-22T00:33:13;19.90;96.00
12845;DHT22;68700;48.534;9.196;2023-06-22T00:36:36;19.90;99.90
12845;DHT22;68700;48.534;9.196;2023-06-22T00:40:01;19.90;99.90
12845;DHT22;68700;48.534;9.196;2023-06-22T00:43:25;19.80;99.90
12845;DHT22;68700;48.534;9.196;2023-06-22T00:46:46;19.80;99.90
12845;DHT22;68700;48.534;9.196;2023-06-22T00:50:09;19.70;99.90
12845;DHT22;68700;48.534;9.196;2023-06-22T00:53:32;19.70;99.90
12845;DHT22;68700;48.534;9.196;2023-06-22T00:56:58;19.60;99.90
12845;DHT22;68700;48.534;9.196;2023-06-22T01:00:22;19.60;99.90
12845;DHT22;68700;48.534;9.196;2023-06-22T01:03:45;19.60;99.90
12845;DHT22;68700;48.534;9.196;2023-06-22T01:07:13;19.60;99.90
12845;DHT22;68700;48.534;9.196;2023-06-22T01:10:41;19.50;99.90
12845;DHT22;68700;48.534;9.196;2023-06-22T01:14:10;19.50;99.90
12845;DHT22;68700;48.534;9.196;2023-06-22T01:17:35;19.40;99.90
12845;DHT22;68700;48.534;9.196;2023-06-22T01:20:58;19.40;99.90
12845;DHT22;68700;48.534;9.196;2023-06-22T01:24:27;19.30;99.90
12845;DHT22;68700;48.534;9.196;2023-06-22T01:27:56;19.20;99.90
12845;DHT22;68700;48.534;9.196;2023-06-22T01:31:24;19.10;99.90
12845;DHT22;68700;48.534;9.196;2023-06-22T01:34:47;19.10;99.90
12845;DHT22;68700;48.534;9.196;2023-06-22T01:38:10;19.00;99.90
12845;DHT22;68700;48.534;9.196;2023-06-22T01:41:34;19.00;99.90
12845;DHT22;68700;48.534;9.196;2023-06-22T01:44:57;18.90;99.90
12845;DHT22;68700;48.534;9.196;2023-06-22T01:48:21;18.90;99.90
12845;DHT22;68700;48.534;9.196;2023-06-22T01:51:43;18.80;99.90
12845;DHT22;68700;48.534;9.196;2023-06-22T01:55:06;18.80;99.90
12845;DHT22;68700;48.534;9.196;2023-06-22T01:58:29;18.80;99.90
12845;DHT22;68700;48.534;9.196;2023-06-22T02:01:56;18.70;99.90
12845;DHT22;68700;48.534;9.196;2023-06-22T02:05:23;18.70;99.90
12845;DHT22;68700;48.534;9.196;2023-06-22T02:08:49;18.70;99.90
12845;DHT22;68700;48.534;9.196;2023-06-22T02:12:15;18.70;99.90
12845;DHT22;68700;48.534;9.196;2023-06-22T02:15:38;18.60;99.90
12845;DHT22;68700;48.534;9.196;2023-06-22T02:19:01;18.60;99.90
12845;DHT22;68700;48.534;9.196;2023-06-22T02:22:25;18.60;99.90
12845;DHT22;68700;48.534;9.196;2023-06-22T02:25:47;18.50;99.90
12845;DHT22;68700;48.534;9.196;2023-06-22T02:29:09;18.50;99.90
12845;DHT22;68700;48.534;9.196;2023-06-22T02:32:31;18.50;99.90
12845;DHT22;68700;48.534;9.196;2023-06-22T02:35:54;18.50;99.90
12845;DHT22;68700;48.534;9.196;2023-06-22T02:39:19;18.50;99.90
12845;DHT22;68700;48.534;9.196;2023-06-22T02:42:42;18.40;99.90
12845;DHT22;68700;48.534;9.196;2023-06-22T02:46:04;18.40;99.90
12845;DHT22;68700;48.534;9.196;2023-06-22T02:49:26;18.40;99.90
12845;DHT22;68700;48.534;9.196;2023-06-22T02:52:48;18.40;99.90
12845;DHT22;68700;48.534;9.196;2023-06-22T02:56:11;18.30;99.90
12845;DHT22;68700;48.534;9.196;2023-06-22T02:59:33;18.30;99.90
12845;DHT22;68700;48.534;9.196;2023-06-22T03:02:55;18.20;99.90
12845;DHT22;68700;48.534;9.196;2023-06-22T03:06:17;18.20;99.90
12845;DHT22;68700;48.534;9.196;2023-06-22T03:09:44;18.20;99.90
12845;DHT22;68700;48.534;9.196;2023-06-22T03:13:07;18.20;99.90
12845;DHT22;68700;48.534;9.196;2023-06-22T03:16:29;18.20;99.90
12845;DHT22;68700;48.534;9.196;2023-06-22T03:19:50;18.20;99.90
12845;DHT22;68700;48.534;9.196;2023-06-22T03:23:12;18.20;99.90
12845;DHT22;68700;48.534;9.196;2023-06-22T03:26:34;18.20;99.90
12845;DHT22;68700;48.534;9.196;2023-06-22T03:29:58;18.20;99.90
12845;DHT22;68700;48.534;9.196;2023-06-22T03:33:20;18.10;99.90
12845;DHT22;68700;48.534;9.196;2023-06-22T03:36:42;18.10;99.90
12845;DHT22;68700;48.534;9.196;2023-06-22T03:40:06;18.10;99.90
12845;DHT22;68700;48.534;9.196;2023-06-22T03:43:28;18.10;99.90
12845;DHT22;68700;48.534;9.196;2023-06-22T03:46:51;18.10;99.90
12845;DHT22;68700;48.534;9.196;2023-06-22T03:50:13;18.00;99.90
12845;DHT22;68700;48.534;9.196;2023-06-22T03:53:35;18.00;99.90
12845;DHT22;68700;48.534;9.196;2023-06-22T03:56:57;18.00;99.90
12845;DHT22;68700;48.534;9.196;2023-06-22T04:00:19;17.90;99.90
12845;DHT22;68700;48.534;9.196;2023-06-22T04:03:42;17.90;99.90
12845;DHT22;68700;48.534;9.196;2023-06-22T04:07:05;18.00;99.90
12845;DHT22;68700;48.534;9.196;2023-06-22T04:10:26;18.10;99.90
12845;DHT22;68700;48.534;9.196;2023-06-22T04:13:48;18.10;99.90
12845;DHT22;68700;48.534;9.196;2023-06-22T04:17:11;18.20;99.90
12845;DHT22;68700;48.534;9.196;2023-06-22T04:20:36;18.20;99.90
12845;DHT22;68700;48.534;9.196;2023-06-22T04:23:57;18.30;99.90
12845;DHT22;68700;48.534;9.196;2023-06-22T04:27:19;18.40;99.90
12845;DHT22;68700;48.534;9.196;2023-06-22T04:30:43;18.50;99.90
12845;DHT22;68700;48.534;9.196;2023-06-22T04:34:08;18.60;99.90
12845;DHT22;68700;48.534;9.196;2023-06-22T04:37:31;18.70;99.90
12845;DHT22;68700;48.534;9.196;2023-06-22T04:40:53;18.80;99.90
12845;DHT22;68700;48.534;9.196;2023-06-22T04:44:16;18.80;99.90
12845;DHT22;68700;48.534;9.196;2023-06-22T04:47:44;18.90;99.90
12845;DHT22;68700;48.534;9.196;2023-06-22T04:51:06;19.00;99.90
12845;DHT22;68700;48.534;9.196;2023-06-22T04:54:30;19.10;99.90
12845;DHT22;68700;48.534;9.196;2023-06-22T04:57:53;19.20;99.90
12845;DHT22;68700;48.534;9.196;2023-06-22T05:01:15;19.20;99.90
12845;DHT22;68700;48.534;9.196;2023-06-22T05:04:37;19.40;99.90
12845;DHT22;68700;48.534;9.196;2023-06-22T05:08:01;19.40;99.90
12845;DHT22;68700;48.534;9.196;2023-06-22T05:11:25;19.50;99.90
12845;DHT22;68700;48.534;9.196;2023-06-22T05:14:47;19.60;99.90
12845;DHT22;68700;48.534;9.196;2023-06-22T05:18:08;19.70;99.90
12845;DHT22;68700;48.534;9.196;2023-06-22T05:21:32;19.80;99.90
12845;DHT22;68700;48.534;9.196;2023-06-22T05:24:54;19.90;99.90
12845;DHT22;68700;48.534;9.196;2023-06-22T05:28:17;20.10;99.90
12845;DHT22;68700;48.534;9.196;2023-06-22T05:31:43;20.20;99.90
12845;DHT22;68700;48.534;9.196;2023-06-22T05:35:05;20.30;99.90
12845;DHT22;68700;48.534;9.196;2023-06-22T05:38:27;20.50;99.90
12845;DHT22;68700;48.534;9.196;2023-06-22T05:41:52;20.70;92.50
12845;DHT22;68700;48.534;9.196;2023-06-22T05:45:15;20.90;22.40
12845;DHT22;68700;48.534;9.196;2023-06-22T05:48:37;21.10;25.00
12845;DHT22;68700;48.534;9.196;2023-06-22T05:51:59;21.20;1.00
12845;DHT22;68700;48.534;9.196;2023-06-22T05:55:21;21.40;1.00
12845;DHT22;68700;48.534;9.196;2023-06-22T05:58:43;21.50;1.00
12845;DHT22;68700;48.534;9.196;2023-06-22T06:02:06;21.70;1.00
12845;DHT22;68700;48.534;9.196;2023-06-22T06:05:28;22.00;1.00
12845;DHT22;68700;48.534;9.196;2023-06-22T06:08:50;22.20;1.00
12845;DHT22;68700;48.534;9.196;2023-06-22T06:12:12;22.40;1.00
12845;DHT22;68700;48.534;9.196;2023-06-22T06:15:35;22.70;1.00
12845;DHT22;68700;48.534;9.196;2023-06-22T06:18:59;23.00;1.00
12845;DHT22;68700;48.534;9.196;2023-06-22T06:22:21;23.20;1.00
12845;DHT22;68700;48.534;9.196;2023-06-22T06:25:43;23.80;1.00
12845;DHT22;68700;48.534;9.196;2023-06-22T06:29:05;24.30;1.00
12845;DHT22;68700;48.534;9.196;2023-06-22T06:32:27;24.60;1.00
12845;DHT22;68700;48.534;9.196;2023-06-22T06:35:50;25.00;1.00
12845;DHT22;68700;48.534;9.196;2023-06-22T06:39:12;25.50;1.00
12845;DHT22;68700;48.534;9.196;2023-06-22T06:42:34;25.50;1.00
12845;DHT22;68700;48.534;9.196;2023-06-22T06:45:56;25.80;1.00
12845;DHT22;68700;48.534;9.196;2023-06-22T06:49:17;26.00;1.00
12845;DHT22;68700;48.534;9.196;2023-06-22T06:52:41;26.40;1.00
12845;DHT22;68700;48.534;9.196;2023-06-22T06:56:03;26.90;1.00
12845;DHT22;68700;48.534;9.196;2023-06-22T06:59:25;27.40;1.00
12845;DHT22;68700;48.534;9.196;2023-06-22T07:02:47;27.70;1.00
12845;DHT22;68700;48.534;9.196;2023-06-22T07:06:09;27.60;1.00
12845;DHT22;68700;48.534;9.196;2023-06-22T07:09:32;28.00;1.00
12845;DHT22;68700;48.534;9.196;2023-06-22T07:12:54;28.10;1.00
12845;DHT22;68700;48.534;9.196;2023-06-22T07:16:17;28.60;1.00
12845;DHT22;68700;48.534;9.196;2023-06-22T07:19:39;28.80;1.00
12845;DHT22;68700;48.534;9.196;2023-06-22T07:23:02;29.00;1.00
12845;DHT22;68700;48.534;9.196;2023-06-22T07:26:26;29.10;1.00
12845;DHT22;68700;48.534;9.196;2023-06-22T07:29:47;29.40;1.00
12845;DHT22;68700;48.534;9.196;2023-06-22T07:33:09;30.00;1.00
12845;DHT22;68700;48.534;9.196;2023-06-22T07:36:31;30.70;1.00
12845;DHT22;68700;48.534;9.196;2023-06-22T07:39:53;30.60;1.00
12845;DHT22;68700;48.534;9.196;2023-06-22T07:43:31;29.90;1.00
12845;DHT22;68700;48.534;9.196;2023-06-22T07:46:54;31.00;1.00
12845;DHT22;68700;48.534;9.196;2023-06-22T07:50:16;31.90;1.00
12845;DHT22;68700;48.534;9.196;2023-06-22T07:53:39;31.20;1.00
12845;DHT22;68700;48.534;9.196;2023-06-22T07:57:00;32.30;1.00
12845;DHT22;68700;48.534;9.196;2023-06-22T08:00:24;32.10;1.00
12845;DHT22;68700;48.534;9.196;2023-06-22T08:03:45;31.40;1.00
12845;DHT22;68700;48.534;9.196;2023-06-22T08:07:07;32.40;1.00
12845;DHT22;68700;48.534;9.196;2023-06-22T08:10:30;31.80;1.00
12845;DHT22;68700;48.534;9.196;2023-06-22T08:13:52;31.90;1.00
12845;DHT22;68700;48.534;9.196;2023-06-22T08:17:17;31.70;1.00
12845;DHT22;68700;48.534;9.196;2023-06-22T08:20:39;31.10;1.00
12845;DHT22;68700;48.534;9.196;2023-06-22T08:24:01;30.80;1.00
12845;DHT22;68700;48.534;9.196;2023-06-22T08:27:23;30.80;1.00
12845;DHT22;68700;48.534;9.196;2023-06-22T08:30:45;30.70;1.00
12845;DHT22;68700;48.534;9.196;2023-06-22T08:34:08;32.30;1.00
12845;DHT22;68700;48.534;9.196;2023-06-22T08:37:30;33.30;1.00
12845;DHT22;68700;48.534;9.196;2023-06-22T08:40:52;33.50;1.00
12845;DHT22;68700;48.534;9.196;2023-06-22T08:44:14;30.70;1.00
12845;DHT22;68700;48.534;9.196;2023-06-22T08:47:35;30.60;1.00
12845;DHT22;68700;48.534;9.196;2023-06-22T08:50:59;31.80;1.00
12845;DHT22;68700;48.534;9.196;2023-06-22T08:54:20;31.60;1.00
12845;DHT22;68700;48.534;9.196;2023-06-22T08:57:42;32.30;1.00
12845;DHT22;68700;48.534;9.196;2023-06-22T09:01:04;33.30;1.00
12845;DHT22;68700;48.534;9.196;2023-06-22T09:04:26;32.90;1.00
12845;DHT22;68700;48.534;9.196;2023-06-22T09:07:49;32.90;1.00
12845;DHT22;68700;48.534;9.196;2023-06-22T09:11:11;33.70;1.00
12845;DHT22;68700;48.534;9.196;2023-06-22T09:14:33;34.00;1.00
12845;DHT22;68700;48.534;9.196;2023-06-22T09:17:55;33.60;1.00
12845;DHT22;68700;48.534;9.196;2023-06-22T09:21:18;31.80;1.00
12845;DHT22;68700;48.534;9.196;2023-06-22T09:24:41;33.10;1.00
12845;DHT22;68700;48.534;9.196;2023-06-22T09:28:03;33.90;1.00
12845;DHT22;68700;48.534;9.196;2023-06-22T09:31:25;34.30;1.00
12845;DHT22;68700;48.534;9.196;2023-06-22T09:34:47;34.50;1.00
12845;DHT22;68700;48.534;9.196;2023-06-22T09:38:08;35.70;1.00
12845;DHT22;68700;48.534;9.196;2023-06-22T09:41:32;35.30;1.00
12845;DHT22;68700;48.534;9.196;2023-06-22T09:44:53;35.70;1.00
12845;DHT22;68700;48.534;9.196;2023-06-22T09:48:15;35.60;1.00
12845;DHT22;68700;48.534;9.196;2023-06-22T09:51:38;36.10;1.00
12845;DHT22;68700;48.534;9.196;2023-06-22T09:54:59;36.80;1.00
12845;DHT22;68700;48.534;9.196;2023-06-22T09:58:23;36.30;1.00
12845;DHT22;68700;48.534;9.196;2023-06-22T10:01:44;34.30;1.00
12845;DHT22;68700;48.534;9.196;2023-06-22T10:05:06;34.00;1.00
12845;DHT22;68700;48.534;9.196;2023-06-22T10:08:29;33.40;1.00
12845;DHT22;68700;48.534;9.196;2023-06-22T10:11:51;33.10;1.00
12845;DHT22;68700;48.534;9.196;2023-06-22T10:15:14;32.70;1.00
12845;DHT22;68700;48.534;9.196;2023-06-22T10:18:36;33.00;1.00
12845;DHT22;68700;48.534;9.196;2023-06-22T10:21:58;34.40;1.00
12845;DHT22;68700;48.534;9.196;2023-06-22T10:25:20;35.40;1.00
12845;DHT22;68700;48.534;9.196;2023-06-22T10:28:41;36.40;1.00
12845;DHT22;68700;48.534;9.196;2023-06-22T10:32:06;37.00;1.00
12845;DHT22;68700;48.534;9.196;2023-06-22T10:35:28;36.80;1.00
12845;DHT22;68700;48.534;9.196;2023-06-22T10:38:49;36.90;1.00
12845;DHT22;68700;48.534;9.196;2023-06-22T10:42:13;37.40;1.00
12845;DHT22;68700;48.534;9.196;2023-06-22T10:45:34;36.60;1.00
12845;DHT22;68700;48.534;9.196;2023-06-22T10:48:58;37.10;1.00
12845;DHT22;68700;48.534;9.196;2023-06-22T10:52:20;36.70;1.00
12845;DHT22;68700;48.534;9.196;2023-06-22T10:55:41;35.70;1.00
12845;DHT22;68700;48.534;9.196;2023-06-22T10:59:03;35.70;1.00
12845;DHT22;68700;48.534;9.196;2023-06-22T11:02:25;35.80;1.00
12845;DHT22;68700;48.534;9.196;2023-06-22T11:05:50;35.50;1.00
12845;DHT22;68700;48.534;9.196;2023-06-22T11:09:12;36.00;1.00
12845;DHT22;68700;48.534;9.196;2023-06-22T11:12:39;36.10;1.00
12845;DHT22;68700;48.534;9.196;2023-06-22T11:16:00;36.70;1.00
12845;DHT22;68700;48.534;9.196;2023-06-22T11:19:23;36.70;1.00
12845;DHT22;68700;48.534;9.196;2023-06-22T11:22:46;36.60;1.00
12845;DHT22;68700;48.534;9.196;2023-06-22T11:26:08;36.40;1.00
12845;DHT22;68700;48.534;9.196;2023-06-22T11:29:30;36.60;1.00
12845;DHT22;68700;48.534;9.196;2023-06-22T11:32:51;36.30;1.00
12845;DHT22;68700;48.534;9.196;2023-06-22T11:36:14;35.80;1.00
12845;DHT22;68700;48.534;9.196;2023-06-22T11:39:37;35.30;1.00
12845;DHT22;68700;48.534;9.196;2023-06-22T11:42:59;34.90;1.00
12845;DHT22;68700;48.534;9.196;2023-06-22T11:46:21;34.70;1.00
12845;DHT22;68700;48.534;9.196;2023-06-22T11:49:42;34.90;1.00
12845;DHT22;68700;48.534;9.196;2023-06-22T11:53:04;34.90;1.00
12845;DHT22;68700;48.534;9.196;2023-06-22T11:56:27;35.00;1.00
12845;DHT22;68700;48.534;9.196;2023-06-22T11:59:49;35.30;1.00
12845;DHT22;68700;48.534;9.196;2023-06-22T12:03:11;35.40;1.00
12845;DHT22;68700;48.534;9.196;2023-06-22T12:06:37;35.40;1.00
12845;DHT22;68700;48.534;9.196;2023-06-22T12:10:02;35.70;1.00
12845;DHT22;68700;48.534;9.196;2023-06-22T12:13:25;34.80;1.00
12845;DHT22;68700;48.534;9.196;2023-06-22T12:16:47;34.10;1.00
12845;DHT22;68700;48.534;9.196;2023-06-22T12:20:10;34.10;1.00
12845;DHT22;68700;48.534;9.196;2023-06-22T12:23:31;34.00;1.00
12845;DHT22;68700;48.534;9.196;2023-06-22T12:26:53;33.20;1.00
12845;DHT22;68700;48.534;9.196;2023-06-22T12:30:17;33.10;1.00
12845;DHT22;68700;48.534;9.196;2023-06-22T12:33:39;32.60;1.00
12845;DHT22;68700;48.534;9.196;2023-06-22T12:37:00;32.50;1.00
12845;DHT22;68700;48.534;9.196;2023-06-22T12:40:23;32.10;1.00
12845;DHT22;68700;48.534;9.196;2023-06-22T12:43:46;32.20;1.00
12845;DHT22;68700;48.534;9.196;2023-06-22T12:47:09;32.30;1.00
12845;DHT22;68700;48.534;9.196;2023-06-22T12:50:31;32.40;1.00
12845;DHT22;68700;48.534;9.196;2023-06-22T12:53:53;32.30;1.00
12845;DHT22;68700;48.534;9.196;2023-06-22T12:57:15;32.60;1.00
12845;DHT22;68700;48.534;9.196;2023-06-22T13:00:39;32.60;1.00
12845;DHT22;68700;48.534;9.196;2023-06-22T13:04:02;32.00;1.00
12845;DHT22;68700;48.534;9.196;2023-06-22T13:07:24;32.60;1.00
12845;DHT22;68700;48.534;9.196;2023-06-22T13:10:46;33.30;1.00
12845;DHT22;68700;48.534;9.196;2023-06-22T13:14:08;33.70;1.00
12845;DHT22;68700;48.534;9.196;2023-06-22T13:17:29;33.00;1.00
12845;DHT22;68700;48.534;9.196;2023-06-22T13:20:53;32.80;1.00
12845;DHT22;68700;48.534;9.196;2023-06-22T13:24:15;33.70;1.00
12845;DHT22;68700;48.534;9.196;2023-06-22T13:27:37;33.10;1.00
12845;DHT22;68700;48.534;9.196;2023-06-22T13:30:59;34.40;1.00
12845;DHT22;68700;48.534;9.196;2023-06-22T13:34:21;34.90;1.00
12845;DHT22;68700;48.534;9.196;2023-06-22T13:37:44;34.10;1.00
12845;DHT22;68700;48.534;9.196;2023-06-22T13:41:06;33.50;1.00
12845;DHT22;68700;48.534;9.196;2023-06-22T13:44:28;32.70;1.00
12845;DHT22;68700;48.534;9.196;2023-06-22T13:47:50;33.30;1.00
12845;DHT22;68700;48.534;9.196;2023-06-22T13:51:11;33.60;1.00
12845;DHT22;68700;48.534;9.196;2023-06-22T13:54:35;33.80;1.00
12845;DHT22;68700;48.534;9.196;2023-06-22T13:57:57;33.40;1.00
12845;DHT22;68700;48.534;9.196;2023-06-22T14:01:19;33.40;1.00
12845;DHT22;68700;48.534;9.196;2023-06-22T14:04:41;32.80;1.00
12845;DHT22;68700;48.534;9.196;2023-06-22T14:08:02;32.90;1.00
12845;DHT22;68700;48.534;9.196;2023-06-22T14:11:26;33.10;1.00
12845;DHT22;68700;48.534;9.196;2023-06-22T14:14:47;32.70;1.00
12845;DHT22;68700;48.534;9.196;2023-06-22T14:18:09;32.80;1.00
12845;DHT22;68700;48.534;9.196;2023-06-22T14:21:31;32.80;1.00
12845;DHT22;68700;48.534;9.196;2023-06-22T14:24:53;33.50;1.00
12845;DHT22;68700;48.534;9.196;2023-06-22T14:28:17;34.40;1.00
12845;DHT22;68700;48.534;9.196;2023-06-22T14:31:39;35.00;1.00
12845;DHT22;68700;48.534;9.196;2023-06-22T14:35:01;34.60;1.00
12845;DHT22;68700;48.534;9.196;2023-06-22T14:38:23;34.70;1.00
12845;DHT22;68700;48.534;9.196;2023-06-22T14:41:45;35.00;1.00
12845;DHT22;68700;48.534;9.196;2023-06-22T14:45:08;35.10;1.00
12845;DHT22;68700;48.534;9.196;2023-06-22T14:48:30;34.60;1.00
12845;DHT22;68700;48.534;9.196;2023-06-22T14:51:52;34.60;1.00
12845;DHT22;68700;48.534;9.196;2023-06-22T14:55:14;34.90;1.00
12845;DHT22;68700;48.534;9.196;2023-06-22T14:58:36;35.10;1.00
12845;DHT22;68700;48.534;9.196;2023-06-22T15:02:01;34.80;1.00
12845;DHT22;68700;48.534;9.196;2023-06-22T15:05:23;34.30;1.00
12845;DHT22;68700;48.534;9.196;2023-06-22T15:08:45;34.00;1.00
12845;DHT22;68700;48.534;9.196;2023-06-22T15:12:07;34.30;1.00
12845;DHT22;68700;48.534;9.196;2023-06-22T15:15:31;34.60;1.00
12845;DHT22;68700;48.534;9.196;2023-06-22T15:18:55;34.50;1.00
12845;DHT22;68700;48.534;9.196;2023-06-22T15:22:17;34.00;1.00
12845;DHT22;68700;48.534;9.196;2023-06-22T15:25:40;34.00;1.00
12845;DHT22;68700;48.534;9.196;2023-06-22T15:29:02;32.80;99.90
12845;DHT22;68700;48.534;9.196;2023-06-22T15:32:25;32.30;99.90
12845;DHT22;68700;48.534;9.196;2023-06-22T15:35:48;31.90;99.90
12845;DHT22;68700;48.534;9.196;2023-06-22T15:39:10;31.50;99.90
12845;DHT22;68700;48.534;9.196;2023-06-22T15:42:32;31.10;99.90
12845;DHT22;68700;48.534;9.196;2023-06-22T15:45:53;31.00;99.90
12845;DHT22;68700;48.534;9.196;2023-06-22T15:49:15;30.90;99.90
12845;DHT22;68700;48.534;9.196;2023-06-22T15:52:39;31.20;99.90
12845;DHT22;68700;48.534;9.196;2023-06-22T15:56:01;31.10;99.90
12845;DHT22;68700;48.534;9.196;2023-06-22T15:59:23;30.90;99.90
12845;DHT22;68700;48.534;9.196;2023-06-22T16:02:46;30.50;99.90
12845;DHT22;68700;48.534;9.196;2023-06-22T16:06:08;30.00;99.90
12845;DHT22;68700;48.534;9.196;2023-06-22T16:09:31;29.70;99.90
12845;DHT22;68700;48.534;9.196;2023-06-22T16:12:53;29.60;99.90
12845;DHT22;68700;48.534;9.196;2023-06-22T16:16:15;29.30;99.90
12845;DHT22;68700;48.534;9.196;2023-06-22T16:19:37;29.20;99.90
12845;DHT22;68700;48.534;9.196;2023-06-22T16:22:59;29.10;99.90
12845;DHT22;68700;48.534;9.196;2023-06-22T16:26:22;29.00;99.90
12845;DHT22;68700;48.534;9.196;2023-06-22T16:29:44;28.80;99.90
12845;DHT22;68700;48.534;9.196;2023-06-22T16:33:06;28.60;99.90
12845;DHT22;68700;48.534;9.196;2023-06-22T16:36:27;28.30;99.90
12845;DHT22;68700;48.534;9.196;2023-06-22T16:39:49;28.20;99.90
12845;DHT22;68700;48.534;9.196;2023-06-22T16:43:12;28.40;99.90
12845;DHT22;68700;48.534;9.196;2023-06-22T16:46:34;28.40;99.90
12845;DHT22;68700;48.534;9.196;2023-06-22T16:49:56;28.20;99.90
12845;DHT22;68700;48.534;9.196;2023-06-22T16:53:19;28.10;99.90
12845;DHT22;68700;48.534;9.196;2023-06-22T16:56:43;28.40;99.90
12845;DHT22;68700;48.534;9.196;2023-06-22T17:00:08;28.60;99.90
12845;DHT22;68700;48.534;9.196;2023-06-22T17:03:33;28.40;99.90
12845;DHT22;68700;48.534;9.196;2023-06-22T17:07:00;28.30;99.90
12845;DHT22;68700;48.534;9.196;2023-06-22T17:10:24;28.10;99.90
12845;DHT22;68700;48.534;9.196;2023-06-22T17:13:46;28.10;99.90
12845;DHT22;68700;48.534;9.196;2023-06-22T17:17:15;28.00;99.90
12845;DHT22;68700;48.534;9.196;2023-06-22T17:20:37;28.00;99.90
12845;DHT22;68700;48.534;9.196;2023-06-22T17:24:00;28.00;99.90
12845;DHT22;68700;48.534;9.196;2023-06-22T17:27:26;27.60;1.00
12845;DHT22;68700;48.534;9.196;2023-06-22T17:31:10;27.60;99.90
12845;DHT22;68700;48.534;9.196;2023-06-22T17:34:33;27.40;1.40
12845;DHT22;68700;48.534;9.196;2023-06-22T17:37:56;27.30;1.00
12845;DHT22;68700;48.534;9.196;2023-06-22T17:41:18;27.30;1.00
12845;DHT22;68700;48.534;9.196;2023-06-22T17:44:40;27.20;99.90
12845;DHT22;68700;48.534;9.196;2023-06-22T17:48:02;27.10;99.90
12845;DHT22;68700;48.534;9.196;2023-06-22T17:51:30;27.00;99.90
12845;DHT22;68700;48.534;9.196;2023-06-22T17:54:52;26.90;99.90
12845;DHT22;68700;48.534;9.196;2023-06-22T17:58:16;26.90;99.90
12845;DHT22;68700;48.534;9.196;2023-06-22T18:01:38;26.90;99.90
12845;DHT22;68700;48.534;9.196;2023-06-22T18:05:03;26.80;99.90
12845;DHT22;68700;48.534;9.196;2023-06-22T18:08:28;26.60;99.90
12845;DHT22;68700;48.534;9.196;2023-06-22T18:11:50;26.40;99.90
12845;DHT22;68700;48.534;9.196;2023-06-22T18:15:12;26.20;99.90
12845;DHT22;68700;48.534;9.196;2023-06-22T18:18:35;26.20;99.90
12845;DHT22;68700;48.534;9.196;2023-06-22T18:21:57;26.10;99.90
12845;DHT22;68700;48.534;9.196;2023-06-22T18:25:20;26.00;99.90
12845;DHT22;68700;48.534;9.196;2023-06-22T18:28:43;26.00;99.90
12845;DHT22;68700;48.534;9.196;2023-06-22T18:32:06;25.70;99.90
12845;DHT22;68700;48.534;9.196;2023-06-22T18:35:28;25.40;99.90
12845;DHT22;68700;48.534;9.196;2023-06-22T18:38:50;25.10;99.90
12845;DHT22;68700;48.534;9.196;2023-06-22T18:42:18;24.70;1.00
12845;DHT22;68700;48.534;9.196;2023-06-22T18:45:40;24.60;1.00
12845;DHT22;68700;48.534;9.196;2023-06-22T18:49:10;24.20;1.00
12845;DHT22;68700;48.534;9.196;2023-06-22T18:52:32;24.10;1.00
12845;DHT22;68700;48.534;9.196;2023-06-22T18:56:11;23.80;1.00
12845;DHT22;68700;48.534;9.196;2023-06-22T18:59:48;23.50;1.00
12845;DHT22;68700;48.534;9.196;2023-06-22T19:03:28;23.30;1.00
12845;DHT22;68700;48.534;9.196;2023-06-22T19:06:54;23.10;1.00
12845;DHT22;68700;48.534;9.196;2023-06-22T19:10:23;22.90;1.00
12845;DHT22;68700;48.534;9.196;2023-06-22T19:13:46;22.70;1.00
12845;DHT22;68700;48.534;9.196;2023-06-22T19:17:13;22.60;1.00
12845;DHT22;68700;48.534;9.196;2023-06-22T19:20:40;22.60;1.00
12845;DHT22;68700;48.534;9.196;2023-06-22T19:24:02;22.50;1.00
12845;DHT22;68700;48.534;9.196;2023-06-22T19:27:29;22.50;1.00
12845;DHT22;68700;48.534;9.196;2023-06-22T19:30:53;22.50;1.00
12845;DHT22;68700;48.534;9.196;2023-06-22T19:34:16;22.40;1.00
12845;DHT22;68700;48.534;9.196;2023-06-22T19:37:38;22.50;1.00
12845;DHT22;68700;48.534;9.196;2023-06-22T19:41:01;22.40;1.00
12845;DHT22;68700;48.534;9.196;2023-06-22T19:44:22;22.50;1.00
12845;DHT22;68700;48.534;9.196;2023-06-22T19:47:56;22.50;1.00
12845;DHT22;68700;48.534;9.196;2023-06-22T19:51:21;22.60;1.00
12845;DHT22;68700;48.534;9.196;2023-06-22T19:54:43;22.60;1.00
12845;DHT22;68700;48.534;9.196;2023-06-22T19:58:05;22.70;1.00
12845;DHT22;68700;48.534;9.196;2023-06-22T20:01:27;22.70;1.00
12845;DHT22;68700;48.534;9.196;2023-06-22T20:04:49;22.70;1.00
12845;DHT22;68700;48.534;9.196;2023-06-22T20:08:13;22.70;1.00
12845;DHT22;68700;48.534;9.196;2023-06-22T20:11:36;22.70;1.00
12845;DHT22;68700;48.534;9.196;2023-06-22T20:15:22;22.70;1.00
12845;DHT22;68700;48.534;9.196;2023-06-22T20:18:45;22.60;1.00
12845;DHT22;68700;48.534;9.196;2023-06-22T20:22:07;22.40;1.00
12845;DHT22;68700;48.534;9.196;2023-06-22T20:25:34;22.30;1.00
12845;DHT22;68700;48.534;9.196;2023-06-22T20:28:56;22.20;1.00
12845;DHT22;68700;48.534;9.196;2023-06-22T20:32:18;22.10;1.00
12845;DHT22;68700;48.534;9.196;2023-06-22T20:35:40;22.00;1.00
12845;DHT22;68700;48.534;9.196;2023-06-22T20:39:02;21.90;1.00
12845;DHT22;68700;48.534;9.196;2023-06-22T20:42:25;21.80;1.00
12845;DHT22;68700;48.534;9.196;2023-06-22T20:45:47;21.70;1.00
12845;DHT22;68700;48.534;9.196;2023-06-22T20:49:09;21.60;1.00
12845;DHT22;68700;48.534;9.196;2023-06-22T20:52:31;21.40;1.00
12845;DHT22;68700;48.534;9.196;2023-06-22T20:55:53;21.40;1.00
12845;DHT22;68700;48.534;9.196;2023-06-22T20:59:16;21.30;1.00
12845;DHT22;68700;48.534;9.196;2023-06-22T21:02:37;21.20;1.00
12845;DHT22;68700;48.534;9.196;2023-06-22T21:06:01;21.10;1.00
12845;DHT22;68700;48.534;9.196;2023-06-22T21:09:22;21.00;1.00
12845;DHT22;68700;48.534;9.196;2023-06-22T21:12:44;20.90;1.00
12845;DHT22;68700;48.534;9.196;2023-06-22T21:16:07;20.80;1.00
12845;DHT22;68700;48.534;9.196;2023-06-22T21:19:29;20.80;1.00
12845;DHT22;68700;48.534;9.196;2023-06-22T21:22:51;20.70;1.00
12845;DHT22;68700;48.534;9.196;2023-06-22T21:26:13;20.60;1.00
12845;DHT22;68700;48.534;9.196;2023-06-22T21:29:35;20.50;1.00
12845;DHT22;68700;48.534;9.196;2023-06-22T21:32:58;20.50;1.00
12845;DHT22;68700;48.534;9.196;2023-06-22T21:36:20;20.40;1.00